sensor_id;sensor_type;location;lat;lon;timestamp;P1;durP1;ratioP1;P2;durP2;ratioP2
70406;SDS011;57821;52.202;0.154;2023-04-20T00:01:50;13.32;;;4.95;;
70406;SDS011;57821;52.202;0.154;2023-04-20T00:04:16;16.40;;;5.40;;
70406;SDS011;57821;52.202;0.154;2023-04-20T00:06:43;19.33;;;5.70;;
70406;SDS011;57821;52.202;0.154;2023-04-20T00:09:12;10.45;;;4.47;;
70406;SDS011;57821;52.202;0.154;2023-04-20T00:11:39;13.00;;;5.53;;
70406;SDS011;57821;52.202;0.154;2023-04-20T00:14:06;15.43;;;4.85;;
70406;SDS011;57821;52.202;0.154;2023-04-20T00:16:33;17.00;;;5.32;;
70406;SDS011;57821;52.202;0.154;2023-04-20T00:18:59;13.38;;;5.15;;
70406;SDS011;57821;52.202;0.154;2023-04-20T00:21:26;19.23;;;6.40;;
70406;SDS011;57821;52.202;0.154;2023-04-20T00:23:52;19.02;;;5.75;;
70406;SDS011;57821;52.202;0.154;2023-04-20T00:26:19;14.38;;;5.93;;
70406;SDS011;57821;52.202;0.154;2023-04-20T00:28:49;12.63;;;5.75;;
70406;SDS011;57821;52.202;0.154;2023-04-20T00:31:16;16.45;;;6.15;;
70406;SDS011;57821;52.202;0.154;2023-04-20T00:33:45;17.38;;;5.85;;
70406;SDS011;57821;52.202;0.154;2023-04-20T00:36:13;17.88;;;6.78;;
70406;SDS011;57821;52.202;0.154;2023-04-20T00:38:39;17.38;;;6.40;;
70406;SDS011;57821;52.202;0.154;2023-04-20T00:41:06;20.40;;;6.25;;
70406;SDS011;57821;52.202;0.154;2023-04-20T00:43:32;19.83;;;7.05;;
70406;SDS011;57821;52.202;0.154;2023-04-20T00:45:59;19.65;;;6.72;;
70406;SDS011;57821;52.202;0.154;2023-04-20T00:48:26;15.93;;;6.50;;
70406;SDS011;57821;52.202;0.154;2023-04-20T00:50:53;22.98;;;6.72;;
70406;SDS011;57821;52.202;0.154;2023-04-20T00:53:20;18.10;;;5.97;;
70406;SDS011;57821;52.202;0.154;2023-04-20T00:55:47;21.23;;;6.13;;
70406;SDS011;57821;52.202;0.154;2023-04-20T00:58:15;20.65;;;7.05;;
70406;SDS011;57821;52.202;0.154;2023-04-20T01:00:42;26.17;;;7.07;;
70406;SDS011;57821;52.202;0.154;2023-04-20T01:03:08;16.98;;;6.40;;
70406;SDS011;57821;52.202;0.154;2023-04-20T01:05:35;18.75;;;7.78;;
70406;SDS011;57821;52.202;0.154;2023-04-20T01:08:02;23.80;;;8.27;;
70406;SDS011;57821;52.202;0.154;2023-04-20T01:10:28;16.85;;;6.72;;
70406;SDS011;57821;52.202;0.154;2023-04-20T01:12:55;17.38;;;6.75;;
70406;SDS011;57821;52.202;0.154;2023-04-20T01:15:21;23.23;;;7.63;;
70406;SDS011;57821;52.202;0.154;2023-04-20T01:17:48;16.42;;;7.63;;
70406;SDS011;57821;52.202;0.154;2023-04-20T01:20:14;16.35;;;6.70;;
70406;SDS011;57821;52.202;0.154;2023-04-20T01:25:11;21.95;;;7.50;;
70406;SDS011;57821;52.202;0.154;2023-04-20T01:27:37;19.20;;;7.30;;
70406;SDS011;57821;52.202;0.154;2023-04-20T01:30:04;22.50;;;6.72;;
70406;SDS011;57821;52.202;0.154;2023-04-20T01:32:32;17.98;;;7.35;;
70406;SDS011;57821;52.202;0.154;2023-04-20T01:34:59;19.30;;;7.18;;
70406;SDS011;57821;52.202;0.154;2023-04-20T01:37:26;22.25;;;7.25;;
70406;SDS011;57821;52.202;0.154;2023-04-20T01:39:52;22.88;;;8.30;;
70406;SDS011;57821;52.202;0.154;2023-04-20T01:42:19;21.52;;;7.90;;
70406;SDS011;57821;52.202;0.154;2023-04-20T01:44:47;23.20;;;9.27;;
70406;SDS011;57821;52.202;0.154;2023-04-20T01:47:14;19.42;;;7.13;;
70406;SDS011;57821;52.202;0.154;2023-04-20T01:49:40;20.23;;;7.15;;
70406;SDS011;57821;52.202;0.154;2023-04-20T01:52:07;21.50;;;6.80;;
70406;SDS011;57821;52.202;0.154;2023-04-20T01:54:34;17.88;;;7.78;;
70406;SDS011;57821;52.202;0.154;2023-04-20T01:57:00;30.02;;;8.02;;
70406;SDS011;57821;52.202;0.154;2023-04-20T01:59:27;15.48;;;6.65;;
70406;SDS011;57821;52.202;0.154;2023-04-20T02:01:53;14.55;;;6.68;;
70406;SDS011;57821;52.202;0.154;2023-04-20T02:04:20;19.48;;;7.15;;
70406;SDS011;57821;52.202;0.154;2023-04-20T02:06:52;19.83;;;7.50;;
70406;SDS011;57821;52.202;0.154;2023-04-20T02:09:19;17.13;;;7.28;;
70406;SDS011;57821;52.202;0.154;2023-04-20T02:11:45;21.80;;;7.45;;
70406;SDS011;57821;52.202;0.154;2023-04-20T02:14:12;19.50;;;8.65;;
70406;SDS011;57821;52.202;0.154;2023-04-20T02:16:39;14.45;;;6.07;;
70406;SDS011;57821;52.202;0.154;2023-04-20T02:19:06;21.38;;;7.18;;
70406;SDS011;57821;52.202;0.154;2023-04-20T02:21:33;19.92;;;7.43;;
70406;SDS011;57821;52.202;0.154;2023-04-20T02:23:59;21.55;;;6.85;;
70406;SDS011;57821;52.202;0.154;2023-04-20T02:26:26;16.55;;;6.18;;
70406;SDS011;57821;52.202;0.154;2023-04-20T02:28:52;21.60;;;7.40;;
70406;SDS011;57821;52.202;0.154;2023-04-20T02:31:19;23.17;;;7.32;;
70406;SDS011;57821;52.202;0.154;2023-04-20T02:33:46;19.50;;;6.35;;
70406;SDS011;57821;52.202;0.154;2023-04-20T02:36:12;19.95;;;7.10;;
70406;SDS011;57821;52.202;0.154;2023-04-20T02:38:39;23.45;;;6.90;;
70406;SDS011;57821;52.202;0.154;2023-04-20T02:41:06;24.02;;;6.47;;
70406;SDS011;57821;52.202;0.154;2023-04-20T02:43:33;19.27;;;7.15;;
70406;SDS011;57821;52.202;0.154;2023-04-20T02:46:00;15.50;;;6.18;;
70406;SDS011;57821;52.202;0.154;2023-04-20T02:48:27;17.50;;;6.28;;
70406;SDS011;57821;52.202;0.154;2023-04-20T02:50:54;21.30;;;6.72;;
70406;SDS011;57821;52.202;0.154;2023-04-20T02:53:22;18.20;;;6.63;;
70406;SDS011;57821;52.202;0.154;2023-04-20T02:56:08;21.48;;;6.78;;
70406;SDS011;57821;52.202;0.154;2023-04-20T02:58:49;21.20;;;6.85;;
70406;SDS011;57821;52.202;0.154;2023-04-20T03:01:30;22.80;;;7.10;;
70406;SDS011;57821;52.202;0.154;2023-04-20T03:04:03;25.83;;;6.43;;
70406;SDS011;57821;52.202;0.154;2023-04-20T03:06:35;28.60;;;6.05;;
70406;SDS011;57821;52.202;0.154;2023-04-20T03:09:04;19.52;;;6.32;;
70406;SDS011;57821;52.202;0.154;2023-04-20T03:11:49;15.85;;;6.60;;
70406;SDS011;57821;52.202;0.154;2023-04-20T03:14:54;18.17;;;7.88;;
70406;SDS011;57821;52.202;0.154;2023-04-20T03:17:29;19.63;;;7.68;;
70406;SDS011;57821;52.202;0.154;2023-04-20T03:19:56;18.55;;;6.43;;
70406;SDS011;57821;52.202;0.154;2023-04-20T03:22:23;19.80;;;5.57;;
70406;SDS011;57821;52.202;0.154;2023-04-20T03:24:53;22.48;;;7.05;;
70406;SDS011;57821;52.202;0.154;2023-04-20T03:27:38;19.05;;;5.72;;
70406;SDS011;57821;52.202;0.154;2023-04-20T03:30:09;20.35;;;5.88;;
70406;SDS011;57821;52.202;0.154;2023-04-20T03:32:36;21.73;;;5.75;;
70406;SDS011;57821;52.202;0.154;2023-04-20T03:35:03;17.27;;;6.35;;
70406;SDS011;57821;52.202;0.154;2023-04-20T03:37:31;28.23;;;7.40;;
70406;SDS011;57821;52.202;0.154;2023-04-20T03:39:57;16.10;;;5.63;;
70406;SDS011;57821;52.202;0.154;2023-04-20T03:42:24;18.13;;;6.50;;
70406;SDS011;57821;52.202;0.154;2023-04-20T03:44:50;18.33;;;6.57;;
70406;SDS011;57821;52.202;0.154;2023-04-20T03:47:17;15.93;;;5.30;;
70406;SDS011;57821;52.202;0.154;2023-04-20T03:49:43;15.38;;;5.40;;
70406;SDS011;57821;52.202;0.154;2023-04-20T03:52:10;20.50;;;5.60;;
70406;SDS011;57821;52.202;0.154;2023-04-20T03:54:37;16.48;;;4.78;;
70406;SDS011;57821;52.202;0.154;2023-04-20T03:57:04;24.50;;;4.95;;
70406;SDS011;57821;52.202;0.154;2023-04-20T03:59:30;14.40;;;5.30;;
70406;SDS011;57821;52.202;0.154;2023-04-20T04:01:59;18.58;;;6.55;;
70406;SDS011;57821;52.202;0.154;2023-04-20T04:04:25;18.05;;;5.47;;
70406;SDS011;57821;52.202;0.154;2023-04-20T04:06:52;18.08;;;5.45;;
70406;SDS011;57821;52.202;0.154;2023-04-20T04:09:19;18.52;;;5.32;;
70406;SDS011;57821;52.202;0.154;2023-04-20T04:11:45;15.27;;;5.00;;
70406;SDS011;57821;52.202;0.154;2023-04-20T04:14:12;16.27;;;5.38;;
70406;SDS011;57821;52.202;0.154;2023-04-20T04:16:39;17.88;;;5.28;;
70406;SDS011;57821;52.202;0.154;2023-04-20T04:19:08;15.77;;;5.43;;
70406;SDS011;57821;52.202;0.154;2023-04-20T04:21:35;15.10;;;4.60;;
70406;SDS011;57821;52.202;0.154;2023-04-20T04:24:03;21.23;;;5.13;;
70406;SDS011;57821;52.202;0.154;2023-04-20T04:26:37;15.13;;;5.22;;
70406;SDS011;57821;52.202;0.154;2023-04-20T04:29:04;19.73;;;5.40;;
70406;SDS011;57821;52.202;0.154;2023-04-20T04:31:31;18.35;;;4.22;;
70406;SDS011;57821;52.202;0.154;2023-04-20T04:34:03;16.02;;;4.88;;
70406;SDS011;57821;52.202;0.154;2023-04-20T04:36:39;15.38;;;5.70;;
70406;SDS011;57821;52.202;0.154;2023-04-20T04:39:08;19.20;;;4.82;;
70406;SDS011;57821;52.202;0.154;2023-04-20T04:41:38;20.58;;;5.95;;
70406;SDS011;57821;52.202;0.154;2023-04-20T04:44:18;21.05;;;5.15;;
70406;SDS011;57821;52.202;0.154;2023-04-20T04:46:45;21.15;;;5.20;;
70406;SDS011;57821;52.202;0.154;2023-04-20T04:49:11;15.45;;;4.50;;
70406;SDS011;57821;52.202;0.154;2023-04-20T04:51:39;21.88;;;5.22;;
70406;SDS011;57821;52.202;0.154;2023-04-20T04:54:05;16.30;;;4.85;;
70406;SDS011;57821;52.202;0.154;2023-04-20T04:56:32;15.02;;;4.82;;
70406;SDS011;57821;52.202;0.154;2023-04-20T04:58:59;20.77;;;5.40;;
70406;SDS011;57821;52.202;0.154;2023-04-20T05:01:25;19.42;;;4.60;;
70406;SDS011;57821;52.202;0.154;2023-04-20T05:03:52;17.15;;;5.03;;
70406;SDS011;57821;52.202;0.154;2023-04-20T05:06:19;15.18;;;4.93;;
70406;SDS011;57821;52.202;0.154;2023-04-20T05:08:45;19.50;;;4.38;;
70406;SDS011;57821;52.202;0.154;2023-04-20T05:11:12;19.67;;;6.03;;
70406;SDS011;57821;52.202;0.154;2023-04-20T05:13:38;17.52;;;4.88;;
70406;SDS011;57821;52.202;0.154;2023-04-20T05:16:05;14.20;;;5.20;;
70406;SDS011;57821;52.202;0.154;2023-04-20T05:18:31;17.25;;;5.50;;
70406;SDS011;57821;52.202;0.154;2023-04-20T05:20:58;17.75;;;4.85;;
70406;SDS011;57821;52.202;0.154;2023-04-20T05:23:25;18.98;;;5.25;;
70406;SDS011;57821;52.202;0.154;2023-04-20T05:25:51;17.17;;;5.43;;
70406;SDS011;57821;52.202;0.154;2023-04-20T05:28:18;19.30;;;5.20;;
70406;SDS011;57821;52.202;0.154;2023-04-20T05:30:45;26.40;;;4.97;;
70406;SDS011;57821;52.202;0.154;2023-04-20T05:33:11;20.38;;;5.57;;
70406;SDS011;57821;52.202;0.154;2023-04-20T05:35:38;21.55;;;5.57;;
70406;SDS011;57821;52.202;0.154;2023-04-20T05:38:04;19.27;;;5.43;;
70406;SDS011;57821;52.202;0.154;2023-04-20T05:40:32;21.25;;;5.25;;
70406;SDS011;57821;52.202;0.154;2023-04-20T05:42:59;17.27;;;5.13;;
70406;SDS011;57821;52.202;0.154;2023-04-20T05:45:25;16.83;;;5.28;;
70406;SDS011;57821;52.202;0.154;2023-04-20T05:47:52;20.42;;;5.60;;
70406;SDS011;57821;52.202;0.154;2023-04-20T05:50:25;16.23;;;4.88;;
70406;SDS011;57821;52.202;0.154;2023-04-20T05:52:52;21.48;;;5.40;;
70406;SDS011;57821;52.202;0.154;2023-04-20T05:55:19;27.67;;;5.95;;
70406;SDS011;57821;52.202;0.154;2023-04-20T05:57:48;25.15;;;5.50;;
70406;SDS011;57821;52.202;0.154;2023-04-20T06:00:16;13.82;;;4.50;;
70406;SDS011;57821;52.202;0.154;2023-04-20T06:02:42;19.92;;;5.60;;
70406;SDS011;57821;52.202;0.154;2023-04-20T06:05:09;23.00;;;5.88;;
70406;SDS011;57821;52.202;0.154;2023-04-20T06:07:37;20.88;;;6.35;;
70406;SDS011;57821;52.202;0.154;2023-04-20T06:10:04;12.95;;;4.30;;
70406;SDS011;57821;52.202;0.154;2023-04-20T06:12:31;19.63;;;5.35;;
70406;SDS011;57821;52.202;0.154;2023-04-20T06:14:57;22.95;;;5.32;;
70406;SDS011;57821;52.202;0.154;2023-04-20T06:17:24;18.77;;;5.68;;
70406;SDS011;57821;52.202;0.154;2023-04-20T06:19:51;15.77;;;5.13;;
70406;SDS011;57821;52.202;0.154;2023-04-20T06:22:18;20.65;;;5.00;;
70406;SDS011;57821;52.202;0.154;2023-04-20T06:24:44;18.85;;;4.75;;
70406;SDS011;57821;52.202;0.154;2023-04-20T06:27:11;20.75;;;5.00;;
70406;SDS011;57821;52.202;0.154;2023-04-20T06:29:37;20.85;;;5.75;;
70406;SDS011;57821;52.202;0.154;2023-04-20T06:32:04;16.33;;;4.38;;
70406;SDS011;57821;52.202;0.154;2023-04-20T06:34:30;14.55;;;4.93;;
70406;SDS011;57821;52.202;0.154;2023-04-20T06:36:57;25.20;;;5.20;;
70406;SDS011;57821;52.202;0.154;2023-04-20T06:39:23;20.17;;;5.68;;
70406;SDS011;57821;52.202;0.154;2023-04-20T06:41:50;22.00;;;5.03;;
70406;SDS011;57821;52.202;0.154;2023-04-20T06:44:20;19.17;;;5.15;;
70406;SDS011;57821;52.202;0.154;2023-04-20T06:46:46;18.52;;;5.03;;
70406;SDS011;57821;52.202;0.154;2023-04-20T06:49:13;15.65;;;4.63;;
70406;SDS011;57821;52.202;0.154;2023-04-20T06:51:39;15.95;;;4.53;;
70406;SDS011;57821;52.202;0.154;2023-04-20T06:54:06;18.63;;;5.22;;
70406;SDS011;57821;52.202;0.154;2023-04-20T06:56:32;23.48;;;5.40;;
70406;SDS011;57821;52.202;0.154;2023-04-20T06:59:01;20.08;;;5.65;;
70406;SDS011;57821;52.202;0.154;2023-04-20T07:01:27;15.82;;;4.60;;
70406;SDS011;57821;52.202;0.154;2023-04-20T07:03:54;16.33;;;4.82;;
70406;SDS011;57821;52.202;0.154;2023-04-20T07:06:21;14.40;;;4.38;;
70406;SDS011;57821;52.202;0.154;2023-04-20T07:08:47;13.32;;;4.47;;
70406;SDS011;57821;52.202;0.154;2023-04-20T07:11:14;16.42;;;4.95;;
70406;SDS011;57821;52.202;0.154;2023-04-20T07:13:40;15.40;;;4.40;;
70406;SDS011;57821;52.202;0.154;2023-04-20T07:16:07;18.02;;;5.15;;
70406;SDS011;57821;52.202;0.154;2023-04-20T07:18:34;16.70;;;4.57;;
70406;SDS011;57821;52.202;0.154;2023-04-20T07:21:01;23.10;;;4.55;;
70406;SDS011;57821;52.202;0.154;2023-04-20T07:23:27;18.70;;;4.95;;
70406;SDS011;57821;52.202;0.154;2023-04-20T07:25:54;18.25;;;5.40;;
70406;SDS011;57821;52.202;0.154;2023-04-20T07:28:20;18.13;;;4.38;;
70406;SDS011;57821;52.202;0.154;2023-04-20T07:30:47;14.38;;;4.20;;
70406;SDS011;57821;52.202;0.154;2023-04-20T07:33:13;13.85;;;4.03;;
70406;SDS011;57821;52.202;0.154;2023-04-20T07:35:40;17.85;;;4.45;;
70406;SDS011;57821;52.202;0.154;2023-04-20T07:38:06;20.70;;;4.68;;
70406;SDS011;57821;52.202;0.154;2023-04-20T07:40:33;18.55;;;4.43;;
70406;SDS011;57821;52.202;0.154;2023-04-20T07:42:59;19.17;;;4.63;;
70406;SDS011;57821;52.202;0.154;2023-04-20T07:45:26;15.50;;;4.18;;
70406;SDS011;57821;52.202;0.154;2023-04-20T07:47:52;21.02;;;4.32;;
70406;SDS011;57821;52.202;0.154;2023-04-20T07:50:19;15.32;;;4.03;;
70406;SDS011;57821;52.202;0.154;2023-04-20T07:52:46;11.77;;;3.50;;
70406;SDS011;57821;52.202;0.154;2023-04-20T07:55:12;15.15;;;4.43;;
70406;SDS011;57821;52.202;0.154;2023-04-20T07:57:39;21.20;;;6.35;;
70406;SDS011;57821;52.202;0.154;2023-04-20T08:00:05;13.52;;;3.35;;
70406;SDS011;57821;52.202;0.154;2023-04-20T08:02:38;17.23;;;4.05;;
70406;SDS011;57821;52.202;0.154;2023-04-20T08:05:04;12.40;;;3.75;;
70406;SDS011;57821;52.202;0.154;2023-04-20T08:07:31;20.45;;;3.83;;
70406;SDS011;57821;52.202;0.154;2023-04-20T08:09:58;19.02;;;3.80;;
70406;SDS011;57821;52.202;0.154;2023-04-20T08:12:24;12.80;;;3.78;;
70406;SDS011;57821;52.202;0.154;2023-04-20T08:14:51;15.50;;;4.20;;
70406;SDS011;57821;52.202;0.154;2023-04-20T08:17:17;12.73;;;3.30;;
70406;SDS011;57821;52.202;0.154;2023-04-20T08:19:44;14.27;;;3.25;;
70406;SDS011;57821;52.202;0.154;2023-04-20T08:22:11;18.10;;;4.40;;
70406;SDS011;57821;52.202;0.154;2023-04-20T08:24:38;12.95;;;3.80;;
70406;SDS011;57821;52.202;0.154;2023-04-20T08:27:06;16.48;;;3.35;;
70406;SDS011;57821;52.202;0.154;2023-04-20T08:29:33;13.32;;;3.47;;
70406;SDS011;57821;52.202;0.154;2023-04-20T08:32:00;10.95;;;3.60;;
70406;SDS011;57821;52.202;0.154;2023-04-20T08:34:26;15.43;;;3.40;;
70406;SDS011;57821;52.202;0.154;2023-04-20T08:36:53;9.25;;;3.15;;
70406;SDS011;57821;52.202;0.154;2023-04-20T08:39:20;10.32;;;3.15;;
70406;SDS011;57821;52.202;0.154;2023-04-20T08:41:47;16.63;;;3.30;;
70406;SDS011;57821;52.202;0.154;2023-04-20T08:44:15;10.23;;;2.85;;
70406;SDS011;57821;52.202;0.154;2023-04-20T08:46:42;11.77;;;3.00;;
70406;SDS011;57821;52.202;0.154;2023-04-20T08:49:11;8.80;;;2.70;;
70406;SDS011;57821;52.202;0.154;2023-04-20T08:51:41;13.43;;;2.33;;
70406;SDS011;57821;52.202;0.154;2023-04-20T08:54:08;8.90;;;3.42;;
70406;SDS011;57821;52.202;0.154;2023-04-20T08:56:37;11.20;;;2.47;;
70406;SDS011;57821;52.202;0.154;2023-04-20T08:59:05;9.45;;;2.47;;
70406;SDS011;57821;52.202;0.154;2023-04-20T09:01:32;13.80;;;2.78;;
70406;SDS011;57821;52.202;0.154;2023-04-20T09:04:01;10.63;;;2.90;;
70406;SDS011;57821;52.202;0.154;2023-04-20T09:06:42;11.43;;;2.55;;
70406;SDS011;57821;52.202;0.154;2023-04-20T09:09:13;8.80;;;2.08;;
70406;SDS011;57821;52.202;0.154;2023-04-20T09:11:39;6.93;;;2.13;;
70406;SDS011;57821;52.202;0.154;2023-04-20T09:14:07;8.48;;;2.20;;
70406;SDS011;57821;52.202;0.154;2023-04-20T09:16:35;13.15;;;2.17;;
70406;SDS011;57821;52.202;0.154;2023-04-20T09:19:02;6.45;;;2.08;;
70406;SDS011;57821;52.202;0.154;2023-04-20T09:21:28;8.88;;;2.13;;
70406;SDS011;57821;52.202;0.154;2023-04-20T09:23:58;8.68;;;2.33;;
70406;SDS011;57821;52.202;0.154;2023-04-20T09:26:25;10.35;;;4.40;;
70406;SDS011;57821;52.202;0.154;2023-04-20T09:28:52;9.93;;;4.88;;
70406;SDS011;57821;52.202;0.154;2023-04-20T09:31:19;16.15;;;5.30;;
70406;SDS011;57821;52.202;0.154;2023-04-20T09:33:57;10.98;;;3.70;;
70406;SDS011;57821;52.202;0.154;2023-04-20T09:36:44;12.18;;;2.85;;
70406;SDS011;57821;52.202;0.154;2023-04-20T09:39:13;9.85;;;2.92;;
70406;SDS011;57821;52.202;0.154;2023-04-20T09:41:42;8.25;;;1.98;;
70406;SDS011;57821;52.202;0.154;2023-04-20T09:44:10;7.45;;;2.20;;
70406;SDS011;57821;52.202;0.154;2023-04-20T09:46:38;8.13;;;2.60;;
70406;SDS011;57821;52.202;0.154;2023-04-20T09:49:09;6.55;;;2.20;;
70406;SDS011;57821;52.202;0.154;2023-04-20T09:51:38;6.97;;;2.13;;
70406;SDS011;57821;52.202;0.154;2023-04-20T09:54:06;9.77;;;3.50;;
70406;SDS011;57821;52.202;0.154;2023-04-20T09:56:34;6.85;;;1.90;;
70406;SDS011;57821;52.202;0.154;2023-04-20T09:59:01;8.05;;;3.70;;
70406;SDS011;57821;52.202;0.154;2023-04-20T10:01:28;8.13;;;2.60;;
70406;SDS011;57821;52.202;0.154;2023-04-20T10:03:56;17.60;;;7.40;;
70406;SDS011;57821;52.202;0.154;2023-04-20T10:06:26;33.90;;;13.55;;
70406;SDS011;57821;52.202;0.154;2023-04-20T10:08:59;10.18;;;4.40;;
70406;SDS011;57821;52.202;0.154;2023-04-20T10:11:31;5.53;;;1.50;;
70406;SDS011;57821;52.202;0.154;2023-04-20T10:14:24;9.25;;;2.60;;
70406;SDS011;57821;52.202;0.154;2023-04-20T10:17:04;5.57;;;1.60;;
70406;SDS011;57821;52.202;0.154;2023-04-20T10:19:39;9.02;;;1.80;;
70406;SDS011;57821;52.202;0.154;2023-04-20T10:22:10;6.50;;;1.55;;
70406;SDS011;57821;52.202;0.154;2023-04-20T10:24:38;5.40;;;1.70;;
70406;SDS011;57821;52.202;0.154;2023-04-20T10:27:15;7.30;;;1.60;;
70406;SDS011;57821;52.202;0.154;2023-04-20T10:29:45;4.32;;;1.20;;
70406;SDS011;57821;52.202;0.154;2023-04-20T10:32:21;7.78;;;1.65;;
70406;SDS011;57821;52.202;0.154;2023-04-20T10:34:59;10.63;;;1.67;;
70406;SDS011;57821;52.202;0.154;2023-04-20T10:37:28;5.05;;;1.38;;
70406;SDS011;57821;52.202;0.154;2023-04-20T10:39:55;4.32;;;1.27;;
70406;SDS011;57821;52.202;0.154;2023-04-20T10:42:21;6.60;;;1.67;;
70406;SDS011;57821;52.202;0.154;2023-04-20T10:44:51;8.52;;;1.70;;
70406;SDS011;57821;52.202;0.154;2023-04-20T10:47:26;4.95;;;1.15;;
70406;SDS011;57821;52.202;0.154;2023-04-20T10:49:53;6.13;;;1.25;;
70406;SDS011;57821;52.202;0.154;2023-04-20T10:52:33;4.18;;;1.00;;
70406;SDS011;57821;52.202;0.154;2023-04-20T10:55:00;5.47;;;1.08;;
70406;SDS011;57821;52.202;0.154;2023-04-20T10:57:27;5.68;;;0.90;;
70406;SDS011;57821;52.202;0.154;2023-04-20T10:59:53;4.93;;;0.98;;
70406;SDS011;57821;52.202;0.154;2023-04-20T11:02:20;10.30;;;1.50;;
70406;SDS011;57821;52.202;0.154;2023-04-20T11:04:47;4.10;;;0.95;;
70406;SDS011;57821;52.202;0.154;2023-04-20T11:07:13;7.25;;;0.85;;
70406;SDS011;57821;52.202;0.154;2023-04-20T11:09:40;6.95;;;0.93;;
70406;SDS011;57821;52.202;0.154;2023-04-20T11:12:07;5.97;;;0.68;;
70406;SDS011;57821;52.202;0.154;2023-04-20T11:14:36;8.20;;;1.27;;
70406;SDS011;57821;52.202;0.154;2023-04-20T11:17:04;5.80;;;0.90;;
70406;SDS011;57821;52.202;0.154;2023-04-20T11:19:32;3.33;;;0.63;;
70406;SDS011;57821;52.202;0.154;2023-04-20T11:22:00;10.57;;;1.00;;
70406;SDS011;57821;52.202;0.154;2023-04-20T11:24:30;5.72;;;0.68;;
70406;SDS011;57821;52.202;0.154;2023-04-20T11:26:57;5.45;;;0.70;;
70406;SDS011;57821;52.202;0.154;2023-04-20T11:32:01;3.55;;;0.60;;
70406;SDS011;57821;52.202;0.154;2023-04-20T11:34:30;5.65;;;0.77;;
70406;SDS011;57821;52.202;0.154;2023-04-20T11:37:02;5.78;;;0.90;;
70406;SDS011;57821;52.202;0.154;2023-04-20T11:39:36;4.70;;;0.88;;
70406;SDS011;57821;52.202;0.154;2023-04-20T11:42:03;4.15;;;0.80;;
70406;SDS011;57821;52.202;0.154;2023-04-20T11:44:30;3.33;;;0.73;;
70406;SDS011;57821;52.202;0.154;2023-04-20T11:46:57;4.72;;;1.27;;
70406;SDS011;57821;52.202;0.154;2023-04-20T11:49:24;5.07;;;0.88;;
70406;SDS011;57821;52.202;0.154;2023-04-20T11:51:52;7.20;;;0.90;;
70406;SDS011;57821;52.202;0.154;2023-04-20T11:54:19;4.82;;;0.85;;
70406;SDS011;57821;52.202;0.154;2023-04-20T11:56:45;6.72;;;1.02;;
70406;SDS011;57821;52.202;0.154;2023-04-20T11:59:12;4.63;;;0.93;;
70406;SDS011;57821;52.202;0.154;2023-04-20T12:01:39;5.88;;;0.93;;
70406;SDS011;57821;52.202;0.154;2023-04-20T12:04:05;7.60;;;0.90;;
70406;SDS011;57821;52.202;0.154;2023-04-20T12:06:32;8.80;;;1.30;;
70406;SDS011;57821;52.202;0.154;2023-04-20T12:08:59;6.93;;;1.02;;
70406;SDS011;57821;52.202;0.154;2023-04-20T12:11:26;5.05;;;1.02;;
70406;SDS011;57821;52.202;0.154;2023-04-20T12:13:53;6.53;;;1.55;;
70406;SDS011;57821;52.202;0.154;2023-04-20T12:16:20;5.15;;;1.00;;
70406;SDS011;57821;52.202;0.154;2023-04-20T12:18:46;5.35;;;1.02;;
70406;SDS011;57821;52.202;0.154;2023-04-20T12:21:13;6.97;;;1.15;;
70406;SDS011;57821;52.202;0.154;2023-04-20T12:23:39;6.35;;;0.82;;
70406;SDS011;57821;52.202;0.154;2023-04-20T12:26:06;6.75;;;1.40;;
70406;SDS011;57821;52.202;0.154;2023-04-20T12:28:37;6.95;;;0.90;;
70406;SDS011;57821;52.202;0.154;2023-04-20T12:31:04;5.78;;;0.95;;
70406;SDS011;57821;52.202;0.154;2023-04-20T12:33:30;9.00;;;1.50;;
70406;SDS011;57821;52.202;0.154;2023-04-20T12:35:57;7.80;;;1.63;;
70406;SDS011;57821;52.202;0.154;2023-04-20T12:38:23;11.93;;;1.42;;
70406;SDS011;57821;52.202;0.154;2023-04-20T12:40:50;5.05;;;0.95;;
70406;SDS011;57821;52.202;0.154;2023-04-20T12:43:16;6.93;;;1.30;;
70406;SDS011;57821;52.202;0.154;2023-04-20T12:45:43;6.18;;;1.10;;
70406;SDS011;57821;52.202;0.154;2023-04-20T12:48:09;5.85;;;1.50;;
70406;SDS011;57821;52.202;0.154;2023-04-20T12:50:36;6.68;;;1.40;;
70406;SDS011;57821;52.202;0.154;2023-04-20T12:53:02;5.78;;;1.25;;
70406;SDS011;57821;52.202;0.154;2023-04-20T12:55:29;8.07;;;1.77;;
70406;SDS011;57821;52.202;0.154;2023-04-20T12:57:55;6.30;;;1.50;;
70406;SDS011;57821;52.202;0.154;2023-04-20T13:00:22;8.63;;;1.42;;
70406;SDS011;57821;52.202;0.154;2023-04-20T13:02:48;6.90;;;1.58;;
70406;SDS011;57821;52.202;0.154;2023-04-20T13:05:15;6.65;;;1.40;;
70406;SDS011;57821;52.202;0.154;2023-04-20T13:07:42;7.30;;;1.83;;
70406;SDS011;57821;52.202;0.154;2023-04-20T13:10:08;7.75;;;1.52;;
70406;SDS011;57821;52.202;0.154;2023-04-20T13:12:35;6.30;;;1.63;;
70406;SDS011;57821;52.202;0.154;2023-04-20T13:15:02;9.80;;;1.60;;
70406;SDS011;57821;52.202;0.154;2023-04-20T13:17:29;9.43;;;1.67;;
70406;SDS011;57821;52.202;0.154;2023-04-20T13:19:55;8.73;;;1.67;;
70406;SDS011;57821;52.202;0.154;2023-04-20T13:22:22;6.28;;;1.38;;
70406;SDS011;57821;52.202;0.154;2023-04-20T13:24:48;9.00;;;1.80;;
70406;SDS011;57821;52.202;0.154;2023-04-20T13:27:15;9.77;;;1.52;;
70406;SDS011;57821;52.202;0.154;2023-04-20T13:29:41;4.53;;;1.38;;
70406;SDS011;57821;52.202;0.154;2023-04-20T13:32:08;8.20;;;1.85;;
70406;SDS011;57821;52.202;0.154;2023-04-20T13:34:35;8.48;;;2.47;;
70406;SDS011;57821;52.202;0.154;2023-04-20T13:37:02;10.88;;;2.42;;
70406;SDS011;57821;52.202;0.154;2023-04-20T13:39:28;7.80;;;1.90;;
70406;SDS011;57821;52.202;0.154;2023-04-20T13:41:55;12.52;;;3.05;;
70406;SDS011;57821;52.202;0.154;2023-04-20T13:44:24;8.93;;;2.40;;
70406;SDS011;57821;52.202;0.154;2023-04-20T13:46:51;13.35;;;2.53;;
70406;SDS011;57821;52.202;0.154;2023-04-20T13:49:17;6.55;;;2.05;;
70406;SDS011;57821;52.202;0.154;2023-04-20T13:51:44;11.40;;;2.40;;
70406;SDS011;57821;52.202;0.154;2023-04-20T13:54:10;9.65;;;2.30;;
70406;SDS011;57821;52.202;0.154;2023-04-20T13:56:37;8.38;;;2.35;;
70406;SDS011;57821;52.202;0.154;2023-04-20T13:59:03;13.20;;;3.28;;
70406;SDS011;57821;52.202;0.154;2023-04-20T14:01:30;10.52;;;2.50;;
70406;SDS011;57821;52.202;0.154;2023-04-20T14:03:56;13.48;;;2.45;;
70406;SDS011;57821;52.202;0.154;2023-04-20T14:06:23;9.70;;;2.50;;
70406;SDS011;57821;52.202;0.154;2023-04-20T14:08:50;11.25;;;2.40;;
70406;SDS011;57821;52.202;0.154;2023-04-20T14:11:16;5.45;;;1.80;;
70406;SDS011;57821;52.202;0.154;2023-04-20T14:13:43;8.60;;;2.40;;
70406;SDS011;57821;52.202;0.154;2023-04-20T14:16:10;13.35;;;2.60;;
70406;SDS011;57821;52.202;0.154;2023-04-20T14:18:37;11.02;;;3.15;;
70406;SDS011;57821;52.202;0.154;2023-04-20T14:21:04;9.57;;;2.70;;
70406;SDS011;57821;52.202;0.154;2023-04-20T14:23:31;12.50;;;2.88;;
70406;SDS011;57821;52.202;0.154;2023-04-20T14:25:57;9.77;;;2.40;;
70406;SDS011;57821;52.202;0.154;2023-04-20T14:28:24;14.52;;;3.13;;
70406;SDS011;57821;52.202;0.154;2023-04-20T14:30:50;15.57;;;2.53;;
70406;SDS011;57821;52.202;0.154;2023-04-20T14:33:17;7.95;;;2.38;;
70406;SDS011;57821;52.202;0.154;2023-04-20T14:35:43;8.55;;;2.40;;
70406;SDS011;57821;52.202;0.154;2023-04-20T14:38:10;13.93;;;2.85;;
70406;SDS011;57821;52.202;0.154;2023-04-20T14:40:36;11.15;;;2.47;;
70406;SDS011;57821;52.202;0.154;2023-04-20T14:43:03;8.90;;;2.38;;
70406;SDS011;57821;52.202;0.154;2023-04-20T14:45:29;11.55;;;2.83;;
70406;SDS011;57821;52.202;0.154;2023-04-20T14:47:56;15.43;;;4.07;;